• Join FlightAware (Why Join?)
  • Login
  • US Flag 
11:28AM EDT


 

Airport Tracker/Info


-or-


 

Live Flight TrackerFlight Track Log ✈ SWA2955 ✈ 07-Apr-2013 ✈ KPHX - KBUR

Flight Track Log - Related Links

Times and Time Zones

All times are in EDT time to prevent confusion due to time zone crossing. See the SWA2955 flight status page for this flight to view local times or setup timezone preferences in your user account.

Time Position Orientation Groundspeed Altitude Reporting Facility
EDT Latitude Longitude Course Direction KTS MPH feet Rate Location/Type
07:33PM 33.4314 -112.0622 266° West 164 189 3,100  Level Albuquerque Center
07:34PM 33.4333 -112.1339 272° West 213 245 6,500 3,360 Climbing Albuquerque Center
07:35PM 33.4650 -112.1881 305° West 247 284 10,000 2,400 Climbing Albuquerque Center
07:36PM 33.5456 -112.1908 358° North 310 357 11,500 2,820 Climbing Albuquerque Center
07:37PM 33.6608 -112.2250 346° North 355 409 15,900 3,780 Climbing Albuquerque Center
07:38PM 33.7594 -112.2550 346° North 361 415 19,300 2,820 Climbing Albuquerque Center
07:39PM 33.8642 -112.2853 347° North 381 438 21,800 2,580 Climbing Albuquerque Center
07:40PM 33.9736 -112.3175 346° North 399 459 24,700 2,580 Climbing Albuquerque Center
07:41PM 34.0425 -112.4006 315° West 369 425 27,100 2,040 Climbing Albuquerque Center
07:42PM 34.0650 -112.5161 283° West 354 407 29,000 2,040 Climbing Albuquerque Center
07:43PM 34.0886 -112.6303 284° West 352 405 31,300 1,440 Climbing Albuquerque Center
07:44PM 34.1125 -112.7467 284° West 355 409 32,000 300 Climbing Albuquerque Center
07:45PM 34.1425 -112.8961 284° West 375 432 32,000  Level Albuquerque Center
07:46PM 34.1678 -113.0225 284° West 384 442 32,000  Level Albuquerque Center
07:47PM 34.1917 -113.1481 283° West 386 444 32,000  Level Albuquerque Center
07:48PM 34.2161 -113.2744 283° West 386 444 32,000 720 Level Albuquerque Center
07:49PM 34.2389 -113.4008 282° West 386 444 33,500 960 Climbing Albuquerque Center
07:50PM 34.2628 -113.5231 283° West 381 438 34,000 240 Climbing Albuquerque Center
07:51PM 34.2919 -113.6636 284° West 381 438 34,000  Level Albuquerque Center
07:52PM 34.3161 -113.7864 283° West 377 434 34,000  Level Albuquerque Center
07:53PM 34.3403 -113.9119 283° West 380 437 34,000  Level Albuquerque Center
07:54PM 34.3628 -114.0350 283° West 377 434 34,000 360 Level Albuquerque Center
07:55PM 34.3881 -114.1606 284° West 375 432 34,800 1,020 Climbing Los Angeles Center
07:56PM 34.4111 -114.2797 283° West 366 421 36,000 540 Climbing Los Angeles Center
07:57PM 34.4331 -114.4008 282° West 369 425 36,000  Level Los Angeles Center
07:58PM 34.4561 -114.5233 283° West 372 428 36,000 -180 Level Los Angeles Center
07:59PM 34.4786 -114.6464 283° West 373 429 35,700 -540 Descending Los Angeles Center
08:00PM 34.5053 -114.7931 282° West 373 429 35,000 -420 Descending Los Angeles Center
08:02PM 34.5278 -114.9169 282° West 376 433 34,900  Descending Los Angeles Center
08:03PM 34.5506 -115.0403 283° West 376 433 35,000  Climbing Los Angeles Center
08:04PM 34.5725 -115.1622 282° West 373 429 35,000  Level Los Angeles Center
08:05PM 34.5936 -115.2836 282° West 371 427 35,000  Level Los Angeles Center
08:06PM 34.6150 -115.4047 282° West 370 426 35,000 -240 Level Los Angeles Center
08:07PM 34.6414 -115.5533 282° West 376 433 34,600 -600 Descending Los Angeles Center
08:08PM 34.6611 -115.6731 281° West 381 438 33,800 -900 Descending Los Angeles Center
08:09PM 34.6839 -115.8022 282° West 391 450 32,800 -900 Descending Los Angeles Center
08:10PM 34.7025 -115.9067 282° West 396 456 32,000 -1,260 Descending Los Angeles Center
08:11PM 34.7281 -116.0603 281° West 389 448 30,200 -1,800 Descending Los Angeles Center
08:12PM 34.7522 -116.2061 281° West 372 428 28,300 -2,160 Descending Los Angeles Center
08:13PM 34.7739 -116.3244 283° West 363 418 25,800 -2,280 Descending Los Angeles Center
08:14PM 34.7931 -116.4408 281° West 357 411 23,700 -1,680 Descending Los Angeles Center
08:15PM 34.7878 -116.5583 267° West 348 400 22,400 -840 Descending Los Angeles Center
08:16PM 34.7761 -116.6744 263° West 347 399 22,000 -240 Descending Los Angeles Center
08:17PM 34.7656 -116.7911 264° West 347 399 22,000  Level Los Angeles Center
08:18PM 34.7511 -116.9342 263° West 352 405 22,000  Level Los Angeles Center
08:19PM 34.7381 -117.0522 262° West 351 404 22,000  Level Los Angeles Center
08:20PM 34.7264 -117.1700 263° West 351 404 22,000 -600 Level Los Angeles Center
08:21PM 34.7142 -117.2869 263° West 349 402 20,800 -1,560 Descending Los Angeles Center
08:22PM 34.7017 -117.3986 262° West 337 388 18,800 -2,040 Descending Los Angeles Center
08:23PM 34.6908 -117.5081 263° West 327 376 16,700 -2,040 Descending Los Angeles Center
08:24PM 34.6792 -117.6167 263° West 323 372 14,700 -1,320 Descending Los Angeles Center
08:25PM 34.6581 -117.7444 259° West 322 371 14,000 -1,440 Descending Los Angeles Center
08:26PM 34.6453 -117.8544 262° West 328 377 11,800 -1,800 Descending Los Angeles Center
08:27PM 34.6292 -117.9608 260° West 324 373 10,300 -1,380 Descending Los Angeles Center
08:28PM 34.6144 -118.0558 259° West 294 338 9,000 -1,140 Descending Los Angeles Center
08:29PM 34.5983 -118.1589 259° West 284 327 8,000 -540 Descending Los Angeles Center
08:30PM 34.5831 -118.2503 259° West 278 320 8,000  Level Los Angeles Center
08:32PM 34.5689 -118.3417 259° West 276 318 8,000 -480 Level Los Angeles Center
08:33PM 34.5303 -118.4172 238° Southwest 279 321 7,000 -480 Descending Los Angeles Center
08:34PM 34.4619 -118.4867 220° Southwest 264 304 7,000 -660 Level Los Angeles Center
08:36PM 34.3550 -118.6014 222° Southwest 254 292 5,000 -720 Descending Los Angeles Center
08:37PM 34.3131 -118.6344 213° Southwest 240 276 4,800 -720 Descending Los Angeles Center
08:38PM 34.2364 -118.6372 182° South 231 266 3,600 -900 Descending Los Angeles Center
08:39PM 34.1964 -118.5975 141° Southeast 226 260 3,000 -300 Descending Los Angeles Center
08:40PM 34.2003 -118.5206 86° East 196 226 3,000 -300 Level Los Angeles Center
08:41PM 34.2000 -118.4500 90° East 168 193 2,400 -660 Descending Southern California TRACON
08:43PM 34.1981 -118.3647 92° East 147 169 1,000 -720 Descending Los Angeles Center